Time;durP1;ratioP1;P1;durP2;ratioP2;P2;SDS_P1;SDS_P2;PMS_P1;PMS_P2;Temp;Humidity;BMP_temperature;BMP_pressure;BME280_temperature;BME280_humidity;BME280_pressure;Samples;Min_cycle;Max_cycle;Signal;HPM_P1;HPM_P2
2023/05/20 00:01:03;;;;;;;19.92;10.52;;;12.20;99.90;;;;;;5008750;28;20654;-85
2023/05/20 00:03:28;;;;;;;23.80;10.82;;;12.20;99.90;;;;;;4977359;28;20183;-87
2023/05/20 00:05:54;;;;;;;20.35;10.02;;;12.10;99.90;;;;;;4992602;28;20189;-86
2023/05/20 00:08:20;;;;;;;26.90;11.15;;;12.10;99.90;;;;;;5008865;28;20220;-85
2023/05/20 00:10:45;;;;;;;18.30;10.32;;;12.10;99.90;;;;;;5008528;28;20214;-85
2023/05/20 00:13:11;;;;;;;19.27;10.15;;;12.10;99.90;;;;;;5008513;28;20187;-85
2023/05/20 00:15:37;;;;;;;19.67;10.23;;;12.00;99.90;;;;;;4975607;28;20543;-86
2023/05/20 00:18:03;;;;;;;19.75;11.43;;;12.10;99.90;;;;;;5009341;28;20253;-85
2023/05/20 00:20:28;;;;;;;22.90;11.80;;;12.10;99.90;;;;;;4994905;28;20170;-85
2023/05/20 00:22:54;;;;;;;19.77;9.63;;;12.10;99.90;;;;;;4993623;28;20189;-85
2023/05/20 00:25:20;;;;;;;22.83;9.60;;;12.10;99.90;;;;;;4991851;28;20185;-86
2023/05/20 00:27:46;;;;;;;23.02;10.02;;;12.10;99.90;;;;;;5008247;28;20202;-86
2023/05/20 00:30:12;;;;;;;22.98;11.23;;;12.00;99.90;;;;;;4992297;28;20241;-86
2023/05/20 00:32:38;;;;;;;19.20;10.88;;;12.00;99.90;;;;;;4975643;28;20646;-86
2023/05/20 00:35:04;;;;;;;22.30;10.70;;;12.00;99.90;;;;;;4975629;28;20183;-85
2023/05/20 00:37:30;;;;;;;25.38;10.45;;;11.90;99.90;;;;;;4990732;28;20580;-85
2023/05/20 00:39:56;;;;;;;15.57;9.23;;;11.90;99.90;;;;;;4991255;28;20562;-85
2023/05/20 00:42:23;;;;;;;19.65;9.38;;;11.90;99.90;;;;;;4981102;28;20229;-84
2023/05/20 00:44:49;;;;;;;19.13;10.10;;;11.80;99.90;;;;;;4995932;28;20628;-85
2023/05/20 00:47:16;;;;;;;21.83;9.80;;;11.80;99.90;;;;;;5011096;28;20232;-84
2023/05/20 00:49:44;;;;;;;15.98;9.45;;;11.70;99.90;;;;;;4995342;28;20205;-85
2023/05/20 00:52:10;;;;;;;20.10;10.00;;;11.70;99.90;;;;;;4995874;28;20273;-84
2023/05/20 00:54:35;;;;;;;18.08;9.80;;;11.60;99.90;;;;;;4994355;28;20302;-85
2023/05/20 00:57:05;;;;;;;15.35;9.00;;;11.60;99.90;;;;;;4995636;28;20182;-84
2023/05/20 00:59:31;;;;;;;19.05;10.20;;;11.50;99.90;;;;;;4994698;28;20213;-84
2023/05/20 01:01:57;;;;;;;19.73;9.77;;;11.50;99.90;;;;;;4995245;28;20213;-83
2023/05/20 01:04:23;;;;;;;21.20;10.07;;;11.50;99.90;;;;;;4978357;28;20180;-83
2023/05/20 01:06:49;;;;;;;22.85;11.27;;;11.40;99.90;;;;;;5011342;28;20240;-83
2023/05/20 01:09:15;;;;;;;19.00;9.95;;;11.40;99.90;;;;;;4995681;28;20198;-84
2023/05/20 01:11:47;;;;;;;18.02;9.10;;;11.30;99.90;;;;;;4994051;28;20267;-84
2023/05/20 01:14:17;;;;;;;18.02;9.88;;;11.30;99.90;;;;;;4995967;28;20177;-84
2023/05/20 01:16:44;;;;;;;17.05;9.38;;;11.30;99.90;;;;;;4984399;28;20182;-84
2023/05/20 01:19:36;;;;;;;20.65;10.40;;;11.30;99.90;;;;;;5000681;28;20176;-84
2023/05/20 01:22:07;;;;;;;19.42;9.95;;;11.20;99.90;;;;;;4987153;28;20240;-84
2023/05/20 01:24:32;;;;;;;17.70;9.15;;;11.20;99.90;;;;;;4978137;28;20173;-84
2023/05/20 01:26:58;;;;;;;17.52;10.20;;;11.20;99.90;;;;;;4995046;28;20526;-84
2023/05/20 01:29:25;;;;;;;20.33;9.65;;;11.10;99.90;;;;;;4994891;28;20614;-84
2023/05/20 01:31:52;;;;;;;18.83;9.32;;;11.10;99.90;;;;;;4993559;28;20639;-84
2023/05/20 01:34:18;;;;;;;18.55;9.73;;;11.10;99.90;;;;;;4994048;28;20174;-84
2023/05/20 01:36:45;;;;;;;17.42;9.68;;;11.10;99.90;;;;;;4993656;28;20678;-85
2023/05/20 01:39:12;;;;;;;23.10;9.77;;;11.10;99.90;;;;;;4993643;28;20565;-83
2023/05/20 01:41:39;;;;;;;19.85;9.73;;;11.10;99.90;;;;;;4994650;28;20180;-84
2023/05/20 01:44:05;;;;;;;19.35;9.80;;;11.10;99.90;;;;;;4993375;28;20236;-84
2023/05/20 01:46:33;;;;;;;17.98;9.90;;;11.20;99.90;;;;;;4993833;28;20182;-83
2023/05/20 01:48:59;;;;;;;20.67;10.82;;;11.20;99.90;;;;;;4994609;28;20205;-84
2023/05/20 01:51:24;;;;;;;19.67;9.80;;;11.30;99.90;;;;;;4993582;28;20653;-83
2023/05/20 01:53:50;;;;;;;22.52;10.77;;;11.30;99.90;;;;;;4977118;28;20284;-85
2023/05/20 01:56:16;;;;;;;22.60;11.18;;;11.40;99.90;;;;;;4996466;28;20170;-83
2023/05/20 01:58:41;;;;;;;21.23;10.73;;;11.50;99.90;;;;;;5010913;28;20277;-83
2023/05/20 02:01:07;;;;;;;20.45;10.43;;;11.50;99.90;;;;;;4996180;28;20182;-84
2023/05/20 02:03:33;;;;;;;25.40;11.43;;;11.50;99.90;;;;;;4995005;28;20186;-84
2023/05/20 02:05:58;;;;;;;19.77;10.38;;;11.50;99.90;;;;;;4994880;28;20228;-84
2023/05/20 02:08:24;;;;;;;20.75;11.30;;;11.60;99.90;;;;;;5009360;28;20213;-84
2023/05/20 02:10:50;;;;;;;24.30;11.50;;;11.60;99.90;;;;;;4994337;28;20269;-85
2023/05/20 02:13:15;;;;;;;24.60;10.90;;;11.60;99.90;;;;;;4993356;28;20636;-84
2023/05/20 02:15:41;;;;;;;18.08;10.45;;;11.60;99.90;;;;;;5009301;28;20204;-84
2023/05/20 02:18:07;;;;;;;20.75;10.57;;;11.60;99.90;;;;;;4994176;28;20178;-84
2023/05/20 02:20:36;;;;;;;22.20;10.57;;;11.70;99.90;;;;;;5009475;28;20180;-84
2023/05/20 02:23:04;;;;;;;19.90;10.68;;;11.60;99.90;;;;;;4994134;28;20321;-84
2023/05/20 02:25:30;;;;;;;21.08;10.57;;;11.60;99.90;;;;;;4994139;28;20193;-84
2023/05/20 02:27:56;;;;;;;21.30;11.40;;;11.70;99.90;;;;;;4994260;28;20579;-84
2023/05/20 02:30:22;;;;;;;18.10;10.30;;;11.70;99.90;;;;;;5008915;28;20288;-84
2023/05/20 02:32:48;;;;;;;22.90;10.32;;;11.70;99.90;;;;;;4993750;28;20208;-85
2023/05/20 02:35:13;;;;;;;20.80;10.70;;;11.70;99.90;;;;;;4994081;28;20662;-83
2023/05/20 02:37:39;;;;;;;17.13;10.75;;;11.70;99.90;;;;;;4992816;28;20235;-84
2023/05/20 02:40:08;;;;;;;18.40;10.10;;;11.70;99.90;;;;;;4993827;28;20177;-84
2023/05/20 02:42:33;;;;;;;18.92;10.98;;;11.70;99.90;;;;;;4991733;28;20242;-84
2023/05/20 02:44:59;;;;;;;21.58;11.10;;;11.70;99.90;;;;;;5008971;28;20220;-84
2023/05/20 02:47:26;;;;;;;18.38;10.23;;;11.70;99.90;;;;;;4993854;28;20632;-84
2023/05/20 02:49:52;;;;;;;19.83;10.55;;;11.60;99.90;;;;;;5008760;28;20248;-85
2023/05/20 02:52:17;;;;;;;18.20;9.57;;;11.60;99.90;;;;;;4993846;28;20288;-84
2023/05/20 02:54:43;;;;;;;23.17;11.00;;;11.60;99.90;;;;;;4976372;28;20178;-83
2023/05/20 02:57:08;;;;;;;21.88;10.18;;;11.70;99.90;;;;;;4992454;28;20264;-83
2023/05/20 02:59:34;;;;;;;26.58;10.35;;;11.60;99.90;;;;;;4994738;28;20181;-84
2023/05/20 03:02:00;;;;;;;18.65;11.02;;;11.60;99.90;;;;;;4996312;28;20538;-84
2023/05/20 03:04:25;;;;;;;15.57;9.73;;;11.70;99.90;;;;;;5013131;28;20643;-84
2023/05/20 03:06:52;;;;;;;16.42;9.68;;;11.70;99.90;;;;;;4980239;28;20213;-83
2023/05/20 03:09:18;;;;;;;18.98;10.23;;;11.70;99.90;;;;;;4980293;28;20217;-84
2023/05/20 03:11:46;;;;;;;18.55;9.32;;;11.70;99.90;;;;;;5012885;28;20178;-83
2023/05/20 03:14:12;;;;;;;13.57;8.93;;;11.60;99.90;;;;;;4997457;28;20189;-84
2023/05/20 03:16:37;;;;;;;13.85;8.43;;;11.60;99.90;;;;;;4996269;28;20566;-84
2023/05/20 03:19:03;;;;;;;17.00;9.95;;;11.60;99.90;;;;;;4997390;28;20185;-83
2023/05/20 03:21:29;;;;;;;14.73;8.73;;;11.70;99.90;;;;;;4980305;28;20186;-83
2023/05/20 03:23:54;;;;;;;14.38;9.40;;;11.70;99.90;;;;;;4997386;28;20185;-84
2023/05/20 03:26:20;;;;;;;17.80;9.90;;;11.70;99.90;;;;;;4979966;28;20182;-82
2023/05/20 03:28:46;;;;;;;14.18;8.38;;;11.70;99.90;;;;;;4997204;28;20218;-83
2023/05/20 03:31:11;;;;;;;15.07;8.82;;;11.70;99.90;;;;;;4996394;28;20272;-83
2023/05/20 03:33:37;;;;;;;15.32;8.98;;;11.70;99.90;;;;;;4980043;28;20231;-83
2023/05/20 03:36:04;;;;;;;14.90;8.52;;;11.70;99.90;;;;;;4997142;28;20217;-84
2023/05/20 03:38:30;;;;;;;15.95;8.50;;;11.60;99.90;;;;;;4997154;28;20532;-83
2023/05/20 03:40:55;;;;;;;11.90;8.02;;;11.70;99.90;;;;;;4995886;28;20217;-83
2023/05/20 03:43:21;;;;;;;15.25;9.38;;;11.70;99.90;;;;;;4995453;28;20324;-84
2023/05/20 03:45:46;;;;;;;13.10;8.57;;;11.70;99.90;;;;;;5012243;28;20544;-83
2023/05/20 03:48:12;;;;;;;16.70;9.10;;;11.60;99.90;;;;;;4979168;28;20186;-84
2023/05/20 03:50:38;;;;;;;19.02;9.25;;;11.70;99.90;;;;;;4979726;28;20178;-83
2023/05/20 03:53:03;;;;;;;18.73;9.80;;;11.70;99.90;;;;;;4995599;28;20182;-84
2023/05/20 03:55:29;;;;;;;15.48;9.23;;;11.70;99.90;;;;;;4985062;28;20270;-83
2023/05/20 03:57:55;;;;;;;15.85;10.10;;;11.70;99.90;;;;;;4977574;28;20215;-82
2023/05/20 04:00:20;;;;;;;14.07;8.52;;;11.80;99.90;;;;;;4977457;28;20671;-82
2023/05/20 04:02:46;;;;;;;14.88;9.00;;;11.80;99.90;;;;;;4977556;28;20186;-83
2023/05/20 04:05:12;;;;;;;16.05;9.93;;;11.90;99.90;;;;;;4959992;28;20205;-82
2023/05/20 04:07:38;;;;;;;20.55;10.00;;;11.90;99.90;;;;;;4977310;28;20273;-83
2023/05/20 04:10:05;;;;;;;18.30;9.68;;;12.00;99.90;;;;;;4977381;28;20210;-83
2023/05/20 04:12:31;;;;;;;14.43;9.38;;;12.00;99.90;;;;;;4976935;28;20241;-82
2023/05/20 04:15:02;;;;;;;14.65;9.40;;;12.10;99.90;;;;;;4977006;28;20278;-82
2023/05/20 04:17:29;;;;;;;14.18;9.00;;;12.20;99.90;;;;;;4978077;28;20170;-82
2023/05/20 04:19:56;;;;;;;21.65;9.63;;;12.30;99.90;;;;;;4978117;28;20632;-82
2023/05/20 04:22:22;;;;;;;17.17;9.38;;;12.30;99.90;;;;;;4978238;28;20906;-82
2023/05/20 04:24:48;;;;;;;21.40;9.27;;;12.40;99.90;;;;;;4943960;28;20274;-82
2023/05/20 04:27:15;;;;;;;18.02;9.63;;;12.40;99.90;;;;;;4984218;28;20655;-82
2023/05/20 04:29:44;;;;;;;16.58;10.50;;;12.50;99.90;;;;;;4985802;28;20210;-83
2023/05/20 04:32:13;;;;;;;12.98;8.45;;;12.50;99.90;;;;;;4983418;28;20186;-83
2023/05/20 04:34:39;;;;;;;14.95;9.07;;;12.50;99.90;;;;;;4986065;28;20177;-84
2023/05/20 04:37:08;;;;;;;12.75;8.95;;;12.60;99.90;;;;;;4980344;28;20193;-84
2023/05/20 04:39:33;;;;;;;14.38;8.57;;;12.60;99.90;;;;;;4975351;28;20195;-84
2023/05/20 04:41:59;;;;;;;18.40;9.00;;;12.70;99.90;;;;;;4982200;28;20226;-83
2023/05/20 04:44:25;;;;;;;12.88;8.07;;;12.70;99.90;;;;;;4950553;28;20233;-85
2023/05/20 04:46:51;;;;;;;15.15;10.10;;;12.80;99.90;;;;;;4984830;28;20543;-83
2023/05/20 04:49:17;;;;;;;17.23;9.90;;;12.90;99.90;;;;;;4985671;28;20206;-83
2023/05/20 04:51:43;;;;;;;16.58;9.15;;;12.90;99.90;;;;;;4984789;28;20178;-83
2023/05/20 04:54:09;;;;;;;14.07;8.70;;;13.00;99.90;;;;;;4988986;28;20170;-84
2023/05/20 04:56:35;;;;;;;13.30;8.63;;;13.00;99.90;;;;;;4996152;28;20538;-82
2023/05/20 04:59:00;;;;;;;14.52;8.20;;;13.10;99.90;;;;;;4995822;28;20181;-83
2023/05/20 05:01:26;;;;;;;16.20;8.77;;;13.10;99.90;;;;;;4978090;28;20186;-82
2023/05/20 05:03:52;;;;;;;15.48;9.52;;;13.20;99.90;;;;;;4979218;28;20574;-83
2023/05/20 05:06:17;;;;;;;16.50;8.40;;;13.20;99.90;;;;;;4978078;28;20260;-83
2023/05/20 05:08:44;;;;;;;13.27;8.88;;;13.30;99.90;;;;;;4994921;28;20244;-82
2023/05/20 05:11:10;;;;;;;14.32;8.73;;;13.30;99.90;;;;;;4977706;28;20178;-84
2023/05/20 05:13:35;;;;;;;13.90;8.85;;;13.40;99.90;;;;;;4995465;28;20639;-83
2023/05/20 05:16:02;;;;;;;16.42;9.45;;;13.50;99.90;;;;;;4993848;28;20252;-83
2023/05/20 05:18:28;;;;;;;18.42;9.23;;;13.60;99.90;;;;;;4995113;28;20216;-82
2023/05/20 05:21:01;;;;;;;14.70;9.10;;;13.70;99.90;;;;;;4978116;28;20532;-83
2023/05/20 05:23:26;;;;;;;13.88;8.73;;;13.80;99.90;;;;;;4994498;28;20174;-83
2023/05/20 05:25:52;;;;;;;10.82;7.72;;;13.90;99.90;;;;;;4995278;28;20189;-83
2023/05/20 05:28:18;;;;;;;14.95;8.73;;;14.00;99.90;;;;;;4994942;28;20208;-83
2023/05/20 05:30:44;;;;;;;13.80;8.40;;;14.00;99.90;;;;;;4977931;28;20240;-82
2023/05/20 05:33:09;;;;;;;14.27;8.40;;;14.20;99.90;;;;;;4978103;28;20623;-82
2023/05/20 05:35:35;;;;;;;16.58;8.70;;;14.30;99.90;;;;;;4994787;28;20269;-83
2023/05/20 05:38:01;;;;;;;14.65;8.70;;;14.40;99.90;;;;;;4993760;28;20543;-83
2023/05/20 05:40:26;;;;;;;12.13;8.18;;;14.50;99.90;;;;;;4994684;28;20181;-82
2023/05/20 05:42:52;;;;;;;14.32;8.25;;;14.70;99.90;;;;;;4977842;28;20236;-83
2023/05/20 05:45:18;;;;;;;14.00;8.25;;;14.80;99.90;;;;;;4985097;28;20179;-82
2023/05/20 05:47:44;;;;;;;18.55;8.90;;;15.00;99.90;;;;;;4966210;28;20181;-82
2023/05/20 05:50:10;;;;;;;11.35;7.78;;;15.10;99.90;;;;;;4991535;28;20221;-82
2023/05/20 05:52:35;;;;;;;9.88;6.68;;;15.20;99.90;;;;;;4996561;28;20182;-83
2023/05/20 05:55:01;;;;;;;11.23;7.63;;;15.40;99.90;;;;;;5008453;28;20261;-85
2023/05/20 05:57:27;;;;;;;10.88;6.72;;;15.50;99.90;;;;;;4977470;28;20647;-84
2023/05/20 05:59:53;;;;;;;11.73;7.15;;;15.50;99.90;;;;;;4977641;28;20194;-82
2023/05/20 06:02:18;;;;;;;15.70;7.18;;;15.70;99.90;;;;;;4995009;28;20585;-84
2023/05/20 06:04:44;;;;;;;12.73;7.97;;;15.80;99.90;;;;;;4977872;28;20185;-83
2023/05/20 06:07:10;;;;;;;9.88;6.38;;;15.90;99.90;;;;;;4993161;28;20208;-86
2023/05/20 06:09:36;;;;;;;9.20;5.65;;;16.00;99.90;;;;;;4997335;28;20209;-84
2023/05/20 06:12:02;;;;;;;11.90;5.88;;;16.10;99.90;;;;;;4983417;28;20236;-83
2023/05/20 06:14:28;;;;;;;8.57;5.80;;;16.20;99.90;;;;;;4983974;28;20636;-83
2023/05/20 06:16:53;;;;;;;9.07;6.13;;;16.30;99.90;;;;;;4961048;28;20531;-82
2023/05/20 06:19:19;;;;;;;12.40;6.57;;;16.40;99.90;;;;;;4975463;28;20190;-82
2023/05/20 06:21:44;;;;;;;7.45;5.70;;;16.50;99.90;;;;;;4975677;28;20648;-82
2023/05/20 06:24:10;;;;;;;8.93;6.18;;;16.60;99.90;;;;;;4974271;28;20194;-82
2023/05/20 06:26:36;;;;;;;11.07;6.15;;;16.70;99.90;;;;;;4989397;28;20179;-83
2023/05/20 06:29:02;;;;;;;9.02;5.57;;;16.70;99.90;;;;;;4975132;28;20706;-83
2023/05/20 06:31:28;;;;;;;10.63;5.95;;;16.80;99.90;;;;;;4989773;28;20182;-83
2023/05/20 06:33:54;;;;;;;7.68;5.40;;;16.90;99.90;;;;;;4973679;28;20588;-83
2023/05/20 06:36:20;;;;;;;12.60;6.05;;;17.00;99.90;;;;;;4973886;28;20225;-82
2023/05/20 06:38:46;;;;;;;7.65;5.57;;;17.00;99.90;;;;;;4990430;28;20712;-83
2023/05/20 06:41:12;;;;;;;9.40;6.45;;;17.00;99.90;;;;;;4974108;28;20182;-84
2023/05/20 06:43:39;;;;;;;8.35;5.57;;;17.10;99.90;;;;;;4973129;28;20256;-83
2023/05/20 06:46:05;;;;;;;19.75;6.85;;;17.20;99.90;;;;;;4973519;28;20182;-82
2023/05/20 06:48:31;;;;;;;8.27;6.25;;;17.30;99.90;;;;;;4990157;28;20194;-82
2023/05/20 06:50:56;;;;;;;7.40;5.38;;;17.30;99.90;;;;;;4974831;28;20249;-83
2023/05/20 06:53:22;;;;;;;11.63;7.32;;;17.40;99.90;;;;;;4975108;28;20187;-82
2023/05/20 06:55:48;;;;;;;14.70;5.93;;;17.40;99.90;;;;;;4973813;28;20534;-83
2023/05/20 06:58:13;;;;;;;8.82;6.22;;;17.50;99.90;;;;;;4989509;28;20692;-83
2023/05/20 07:00:40;;;;;;;11.02;6.93;;;17.50;99.90;;;;;;4973619;28;20175;-83
2023/05/20 07:03:06;;;;;;;16.33;10.93;;;17.50;99.90;;;;;;4974031;28;20183;-83
2023/05/20 07:05:31;;;;;;;9.82;6.68;;;17.60;99.90;;;;;;4974774;28;20246;-83
2023/05/20 07:07:57;;;;;;;11.13;6.22;;;17.70;99.90;;;;;;4974672;28;20182;-83
2023/05/20 07:10:23;;;;;;;11.18;6.88;;;17.80;99.90;;;;;;4973435;28;20698;-83
2023/05/20 07:12:48;;;;;;;9.82;7.00;;;17.90;99.90;;;;;;4973358;28;20698;-82
2023/05/20 07:15:14;;;;;;;14.77;7.00;;;18.00;99.90;;;;;;4973147;28;20179;-83
2023/05/20 07:17:40;;;;;;;13.82;8.55;;;18.00;99.90;;;;;;4989162;28;20182;-83
2023/05/20 07:20:07;;;;;;;13.60;7.55;;;18.10;99.90;;;;;;4974452;28;20229;-83
2023/05/20 07:22:32;;;;;;;10.48;7.25;;;18.20;99.90;;;;;;4989371;28;20190;-83
2023/05/20 07:24:59;;;;;;;17.90;10.60;;;18.20;99.90;;;;;;4976693;28;20195;-82
2023/05/20 07:27:25;;;;;;;14.85;9.38;;;18.30;99.90;;;;;;4955368;28;20232;-87
2023/05/20 07:29:51;;;;;;;13.35;8.98;;;18.30;99.90;;;;;;4988181;28;20215;-83
2023/05/20 07:32:17;;;;;;;18.60;11.75;;;18.30;99.90;;;;;;4970853;28;20186;-84
2023/05/20 07:34:42;;;;;;;11.60;7.50;;;18.40;99.90;;;;;;4972191;28;20178;-82
2023/05/20 07:37:08;;;;;;;15.23;8.52;;;18.50;99.90;;;;;;4987150;28;20190;-83
2023/05/20 07:39:34;;;;;;;12.10;8.35;;;18.70;99.90;;;;;;4954711;28;20202;-84
2023/05/20 07:42:00;;;;;;;9.57;7.45;;;18.80;99.90;;;;;;4987263;28;20547;-83
2023/05/20 07:44:26;;;;;;;10.57;7.28;;;18.90;99.90;;;;;;4971099;28;20178;-84
2023/05/20 07:46:52;;;;;;;12.75;7.57;;;19.00;99.90;;;;;;4971018;28;20222;-82
2023/05/20 07:49:18;;;;;;;9.98;7.68;;;19.10;99.90;;;;;;4977152;28;20377;-82
2023/05/20 07:51:45;;;;;;;13.73;9.10;;;19.20;99.90;;;;;;4976185;28;20659;-84
2023/05/20 07:54:11;;;;;;;12.88;8.93;;;19.20;99.90;;;;;;4977499;28;20185;-84
2023/05/20 07:56:36;;;;;;;13.00;7.72;;;19.20;99.90;;;;;;4977095;28;20278;-82
2023/05/20 07:59:02;;;;;;;12.05;8.10;;;19.30;99.90;;;;;;4976075;28;20187;-84
2023/05/20 08:01:28;;;;;;;10.45;7.63;;;19.40;99.90;;;;;;4976835;28;20253;-84
2023/05/20 08:03:54;;;;;;;11.80;8.30;;;19.50;99.90;;;;;;4977566;28;20628;-82
2023/05/20 08:06:20;;;;;;;11.18;7.78;;;19.50;99.90;;;;;;4975878;28;20214;-82
2023/05/20 08:08:46;;;;;;;12.73;8.77;;;19.60;99.90;;;;;;4975427;28;20222;-82
2023/05/20 08:11:12;;;;;;;10.20;7.75;;;19.70;99.90;;;;;;4975955;28;20187;-83
2023/05/20 08:13:39;;;;;;;11.02;7.55;;;19.80;99.90;;;;;;4977789;28;20192;-82
2023/05/20 08:16:05;;;;;;;13.57;7.22;;;19.80;99.90;;;;;;4980645;28;20175;-82
2023/05/20 08:18:32;;;;;;;12.23;7.95;;;19.80;99.90;;;;;;4978303;28;20258;-84
2023/05/20 08:20:58;;;;;;;10.70;7.30;;;19.90;99.90;;;;;;4977011;28;20190;-82
2023/05/20 08:23:24;;;;;;;10.80;7.72;;;20.00;99.90;;;;;;4975656;28;20183;-82
2023/05/20 08:25:50;;;;;;;13.65;7.35;;;20.10;99.90;;;;;;4991455;28;20179;-81
2023/05/20 08:28:17;;;;;;;16.15;8.48;;;20.10;99.90;;;;;;4976859;28;20214;-81
2023/05/20 08:30:43;;;;;;;13.38;8.55;;;20.30;99.90;;;;;;4976546;28;20226;-81
2023/05/20 08:33:09;;;;;;;10.68;7.65;;;20.40;99.90;;;;;;4976637;28;20197;-82
2023/05/20 08:35:37;;;;;;;13.65;8.18;;;20.50;99.90;;;;;;4991485;28;20214;-83
2023/05/20 08:38:03;;;;;;;14.60;9.45;;;20.70;99.90;;;;;;4976776;28;20174;-81
2023/05/20 08:40:28;;;;;;;10.32;7.63;;;20.80;99.90;;;;;;4976562;28;20185;-81
2023/05/20 08:42:56;;;;;;;14.15;8.15;;;20.70;99.90;;;;;;4975903;28;20245;-80
2023/05/20 08:45:26;;;;;;;9.85;7.30;;;20.70;99.90;;;;;;4991130;28;20187;-81
2023/05/20 08:47:52;;;;;;;11.05;7.45;;;20.70;99.90;;;;;;4990452;28;20542;-81
2023/05/20 08:50:18;;;;;;;12.88;7.10;;;20.90;99.90;;;;;;4975280;28;20210;-82
2023/05/20 08:52:50;;;;;;;10.13;6.70;;;20.90;99.90;;;;;;4975867;28;20185;-84
2023/05/20 08:55:42;;;;;;;7.65;6.63;;;21.10;99.90;;;;;;4976368;28;20214;-83
2023/05/20 08:58:09;;;;;;;10.55;7.07;;;21.30;99.90;;;;;;4975792;28;20557;-83
2023/05/20 09:00:36;;;;;;;9.60;6.68;;;21.40;99.90;;;;;;4990230;28;20179;-82
2023/05/20 09:03:03;;;;;;;8.50;6.35;;;21.50;99.90;;;;;;4990794;28;20232;-82
2023/05/20 09:05:28;;;;;;;9.95;7.13;;;21.60;99.90;;;;;;4976016;28;20175;-82
2023/05/20 09:08:05;;;;;;;10.73;6.40;;;21.60;99.90;;;;;;4975534;28;20589;-81
2023/05/20 09:10:32;;;;;;;13.13;7.22;;;21.60;99.90;;;;;;4976098;28;20194;-81
2023/05/20 09:13:03;;;;;;;10.02;6.75;;;21.60;99.90;;;;;;4990395;28;20209;-82
2023/05/20 09:15:39;;;;;;;12.38;7.45;;;21.80;99.90;;;;;;4974482;28;20550;-82
2023/05/20 09:18:06;;;;;;;13.65;7.15;;;21.90;99.90;;;;;;4976054;28;20171;-81
2023/05/20 09:20:36;;;;;;;11.38;6.78;;;22.00;99.90;;;;;;4975834;28;20259;-83
2023/05/20 09:23:05;;;;;;;10.93;6.88;;;22.00;99.90;;;;;;4975551;28;20194;-83
2023/05/20 09:25:32;;;;;;;9.35;6.55;;;22.10;99.90;;;;;;4975806;28;20253;-82
2023/05/20 09:27:57;;;;;;;14.57;7.13;;;22.30;99.90;;;;;;4975486;28;20270;-81
2023/05/20 09:30:23;;;;;;;9.07;7.13;;;22.30;99.90;;;;;;4975635;28;20289;-81
2023/05/20 09:32:53;;;;;;;9.25;6.53;;;22.20;99.90;;;;;;4975569;28;20628;-82
2023/05/20 09:35:20;;;;;;;9.20;6.82;;;22.20;99.90;;;;;;4975542;28;20241;-81
2023/05/20 09:37:46;;;;;;;11.40;7.13;;;22.30;99.90;;;;;;4975174;28;20179;-82
2023/05/20 09:40:14;;;;;;;10.27;7.38;;;22.40;99.90;;;;;;4975577;28;20197;-82
2023/05/20 09:42:49;;;;;;;10.23;6.80;;;22.40;99.90;;;;;;4975187;28;20234;-82
2023/05/20 09:45:15;;;;;;;11.25;7.80;;;22.30;99.90;;;;;;4975567;28;20173;-82
2023/05/20 09:47:42;;;;;;;8.38;6.70;;;22.30;99.90;;;;;;4974992;28;20183;-82
2023/05/20 09:50:08;;;;;;;10.73;6.60;;;22.50;99.90;;;;;;4957921;28;20246;-82
2023/05/20 09:52:38;;;;;;;9.65;7.00;;;22.80;99.90;;;;;;4975485;28;20178;-82
2023/05/20 09:55:09;;;;;;;10.30;6.90;;;22.80;99.90;;;;;;4989728;28;20183;-82
2023/05/20 09:57:35;;;;;;;9.93;7.25;;;22.60;99.90;;;;;;4974928;28;20170;-81
2023/05/20 10:00:04;;;;;;;7.22;6.32;;;22.70;99.90;;;;;;4974514;28;20807;-82
2023/05/20 10:02:30;;;;;;;11.80;6.60;;;22.90;99.90;;;;;;4974327;28;20536;-82
2023/05/20 10:04:58;;;;;;;9.15;6.80;;;23.10;99.90;;;;;;4974139;28;20171;-83
2023/05/20 10:07:51;;;;;;;8.10;6.20;;;23.10;99.90;;;;;;4973194;28;20189;-82
2023/05/20 10:10:43;;;;;;;13.52;7.15;;;23.10;99.90;;;;;;4956802;28;20261;-83
2023/05/20 10:13:18;;;;;;;13.77;6.65;;;23.20;99.90;;;;;;4973019;28;20178;-83
2023/05/20 10:16:04;;;;;;;10.75;6.35;;;23.30;99.90;;;;;;4974240;28;20166;-83
2023/05/20 10:18:46;;;;;;;9.75;7.00;;;23.40;99.90;;;;;;4957020;28;20254;-83
2023/05/20 10:21:24;;;;;;;10.45;7.43;;;23.60;99.90;;;;;;4973093;28;20178;-83
2023/05/20 10:23:51;;;;;;;11.98;7.40;;;23.70;99.90;;;;;;4974164;28;20217;-84
2023/05/20 10:26:18;;;;;;;8.18;6.45;;;24.00;99.90;;;;;;4974513;28;20201;-84
2023/05/20 10:28:45;;;;;;;8.45;6.82;;;24.10;99.90;;;;;;4956718;28;20248;-84
2023/05/20 10:31:19;;;;;;;10.05;7.28;;;24.10;99.90;;;;;;4956714;28;20190;-84
2023/05/20 10:33:46;;;;;;;10.02;7.30;;;24.00;99.90;;;;;;4974529;28;20249;-85
2023/05/20 10:36:30;;;;;;;7.22;5.93;;;23.80;99.90;;;;;;4973339;28;20225;-83
2023/05/20 10:38:58;;;;;;;7.78;6.40;;;23.80;99.90;;;;;;4974467;28;20220;-85
2023/05/20 10:41:26;;;;;;;10.30;6.82;;;23.70;99.90;;;;;;4957946;28;20214;-85
2023/05/20 10:44:01;;;;;;;12.52;6.65;;;23.50;99.90;;;;;;4980446;28;20237;-85
2023/05/20 10:46:28;;;;;;;9.50;6.30;;;23.40;99.90;;;;;;4975659;28;20174;-84
2023/05/20 10:48:54;;;;;;;9.88;6.75;;;;;;;;;;4989231;28;20210;-85
2023/05/20 10:51:20;;;;;;;10.18;6.90;;;;;;;;;;4973144;28;20260;-85
2023/05/20 10:53:46;;;;;;;8.95;6.35;;;24.00;99.90;;;;;;4973801;28;20225;-84
2023/05/20 10:56:23;;;;;;;11.05;6.70;;;24.20;99.90;;;;;;4972381;28;20273;-86
2023/05/20 10:58:51;;;;;;;10.32;6.65;;;24.40;99.90;;;;;;4973990;28;20173;-84
2023/05/20 11:01:18;;;;;;;7.50;6.15;;;24.50;99.90;;;;;;4972750;28;20225;-84
2023/05/20 11:03:48;;;;;;;11.75;6.22;;;24.60;99.60;;;;;;4974097;28;20183;-84
2023/05/20 11:06:15;;;;;;;7.07;5.43;;;24.80;98.80;;;;;;4972258;28;20182;-85
2023/05/20 11:08:42;;;;;;;7.43;5.85;;;24.70;98.20;;;;;;4956525;28;20193;-85
2023/05/20 11:11:12;;;;;;;8.88;6.47;;;24.60;99.80;;;;;;4988176;28;20182;-85
2023/05/20 11:13:38;;;;;;;9.90;6.53;;;24.70;99.30;;;;;;4988039;28;20159;-84
2023/05/20 11:16:04;;;;;;;11.93;6.22;;;24.70;98.30;;;;;;4973445;28;20182;-84
2023/05/20 11:18:30;;;;;;;8.73;5.70;;;24.90;99.70;;;;;;4988731;28;20190;-83
2023/05/20 11:21:00;;;;;;;7.40;5.82;;;25.00;96.80;;;;;;4988383;28;20218;-83
2023/05/20 11:23:27;;;;;;;8.52;7.05;;;25.40;98.20;;;;;;4975072;28;20241;-84
2023/05/20 11:25:54;;;;;;;8.77;6.15;;;25.00;96.80;;;;;;4975673;28;20224;-85
2023/05/20 11:28:21;;;;;;;7.85;6.05;;;24.90;96.60;;;;;;4977504;28;20205;-84
2023/05/20 11:30:48;;;;;;;8.68;6.05;;;24.70;97.30;;;;;;4977298;28;20214;-82
2023/05/20 11:33:15;;;;;;;7.35;5.70;;;24.50;97.20;;;;;;4977483;28;20690;-84
2023/05/20 11:35:48;;;;;;;9.32;6.57;;;24.50;98.40;;;;;;4959228;28;20691;-84
2023/05/20 11:38:14;;;;;;;9.85;5.88;;;24.50;97.80;;;;;;4959605;28;20575;-85
2023/05/20 11:40:51;;;;;;;12.48;6.07;;;24.50;96.40;;;;;;4977089;28;20187;-84
2023/05/20 11:43:18;;;;;;;8.60;6.15;;;24.60;97.10;;;;;;4976898;28;20226;-84
2023/05/20 11:45:45;;;;;;;8.38;5.88;;;24.70;97.10;;;;;;4991912;28;20679;-83
2023/05/20 11:48:13;;;;;;;9.82;6.05;;;24.90;95.70;;;;;;4977408;28;20225;-84
2023/05/20 11:50:41;;;;;;;8.05;6.03;;;24.90;95.20;;;;;;4977591;28;20207;-84
2023/05/20 11:53:08;;;;;;;8.63;6.35;;;24.80;95.10;;;;;;4977896;28;20179;-84
2023/05/20 11:55:53;;;;;;;7.40;5.60;;;25.00;95.50;;;;;;4979985;28;20178;-83
2023/05/20 11:58:21;;;;;;;7.70;5.80;;;25.10;94.70;;;;;;4977705;28;20264;-83
2023/05/20 12:00:47;;;;;;;13.48;7.68;;;25.00;94.30;;;;;;4977509;28;20178;-83
2023/05/20 12:03:13;;;;;;;7.78;5.47;;;25.00;94.80;;;;;;4977171;28;20265;-84
2023/05/20 12:05:39;;;;;;;7.95;5.82;;;25.00;94.30;;;;;;4977394;28;20294;-84
2023/05/20 12:08:05;;;;;;;8.20;6.10;;;24.80;94.30;;;;;;4959713;28;20179;-83
2023/05/20 12:10:31;;;;;;;10.60;6.45;;;24.70;95.50;;;;;;4976928;28;20324;-83
2023/05/20 12:12:57;;;;;;;10.07;6.03;;;24.50;94.20;;;;;;4976233;28;20277;-83
2023/05/20 12:15:23;;;;;;;8.32;5.97;;;24.20;95.80;;;;;;4977018;28;20179;-84
2023/05/20 12:17:51;;;;;;;7.22;6.25;;;24.00;97.00;;;;;;4977372;28;20254;-84
2023/05/20 12:20:20;;;;;;;8.40;5.68;;;23.90;98.30;;;;;;4959354;28;20182;-84
2023/05/20 12:22:47;;;;;;;7.07;5.72;;;23.70;98.10;;;;;;4976489;28;20178;-84
2023/05/20 12:25:15;;;;;;;6.72;5.30;;;23.70;98.50;;;;;;4976317;28;20179;-85
2023/05/20 12:27:41;;;;;;;9.38;6.18;;;23.60;99.40;;;;;;4976763;28;20178;-84
2023/05/20 12:30:08;;;;;;;9.10;6.95;;;23.60;99.90;;;;;;4959130;28;20218;-85
2023/05/20 12:32:37;;;;;;;7.07;5.18;;;23.50;99.90;;;;;;4959075;28;20174;-84
2023/05/20 12:35:03;;;;;;;8.15;5.28;;;23.30;99.90;;;;;;4975123;28;20186;-85
2023/05/20 12:37:29;;;;;;;6.38;4.82;;;23.20;99.90;;;;;;4977021;28;20183;-84